Terminal Aerodrome Forecast
Issued by NWS

Home | Current Version | Previous Version | Graphics & Text | Print | Product List | Glossary On
Versions: 1 2 3 4 5 6 7 8 9 10 11 12 13 14 15 16 17 18 19 20 21 22 23 24
224
FTUS43 KBIS 201125
TAFMOT
TAF
KMOT 201125Z 2012/2112 29009KT 6SM BR VCSH OVC007
     FM201700 26011KT P6SM SCT008
     FM202000 25012KT P6SM SKC
     FM210600 20006KT P6SM BKN100=

USA.gov is the U.S. government's official web portal to all federal, state and local government web resources and services.